sensor_id;sensor_type;location;lat;lon;timestamp;pressure;altitude;pressure_sealevel;temperature
64600;BMP280;6553;48.412;9.514;2023-04-25T00:01:34;71594.28;;;19.24
64600;BMP280;6553;48.412;9.514;2023-04-25T00:04:02;71600.88;;;19.25
64600;BMP280;6553;48.412;9.514;2023-04-25T00:06:29;71592.28;;;19.20
64600;BMP280;6553;48.412;9.514;2023-04-25T00:08:55;71594.94;;;19.22
64600;BMP280;6553;48.412;9.514;2023-04-25T00:11:22;71603.09;;;19.25
64600;BMP280;6553;48.412;9.514;2023-04-25T00:13:49;71599.72;;;19.27
64600;BMP280;6553;48.412;9.514;2023-04-25T00:16:16;71593.75;;;19.24
64600;BMP280;6553;48.412;9.514;2023-04-25T00:18:42;71594.28;;;19.24
64600;BMP280;6553;48.412;9.514;2023-04-25T00:21:09;71603.63;;;19.25
64600;BMP280;6553;48.412;9.514;2023-04-25T00:23:35;71595.97;;;19.23
64600;BMP280;6553;48.412;9.514;2023-04-25T00:26:02;71600.88;;;19.25
64600;BMP280;6553;48.412;9.514;2023-04-25T00:28:28;71601.41;;;19.26
64600;BMP280;6553;48.412;9.514;2023-04-25T00:30:54;71595.34;;;19.25
64600;BMP280;6553;48.412;9.514;2023-04-25T00:33:20;71594.81;;;19.25
64600;BMP280;6553;48.412;9.514;2023-04-25T00:35:46;71597.47;;;19.27
64600;BMP280;6553;48.412;9.514;2023-04-25T00:38:12;71596.53;;;19.24
64600;BMP280;6553;48.412;9.514;2023-04-25T00:40:38;71596.41;;;19.26
64600;BMP280;6553;48.412;9.514;2023-04-25T00:43:04;71593.75;;;19.24
64600;BMP280;6553;48.412;9.514;2023-04-25T00:45:30;71598.75;;;19.23
64600;BMP280;6553;48.412;9.514;2023-04-25T00:47:56;71597.06;;;19.24
64600;BMP280;6553;48.412;9.514;2023-04-25T00:50:23;71598.75;;;19.23
64600;BMP280;6553;48.412;9.514;2023-04-25T00:52:49;71594.50;;;19.19
64600;BMP280;6553;48.412;9.514;2023-04-25T00:55:15;71592.16;;;19.22
64600;BMP280;6553;48.412;9.514;2023-04-25T00:57:42;71593.84;;;19.21
64600;BMP280;6553;48.412;9.514;2023-04-25T01:00:09;71595.97;;;19.23
64600;BMP280;6553;48.412;9.514;2023-04-25T01:02:37;71596.53;;;19.24
64600;BMP280;6553;48.412;9.514;2023-04-25T01:05:04;71597.56;;;19.25
64600;BMP280;6553;48.412;9.514;2023-04-25T01:07:30;71595.97;;;19.23
64600;BMP280;6553;48.412;9.514;2023-04-25T01:09:56;71590.56;;;19.21
64600;BMP280;6553;48.412;9.514;2023-04-25T01:12:23;71598.75;;;19.23
64600;BMP280;6553;48.412;9.514;2023-04-25T01:14:49;71596.53;;;19.24
64600;BMP280;6553;48.412;9.514;2023-04-25T01:17:15;71596.53;;;19.24
64600;BMP280;6553;48.412;9.514;2023-04-25T01:19:41;71591.09;;;19.21
64600;BMP280;6553;48.412;9.514;2023-04-25T01:22:07;71597.69;;;19.22
64600;BMP280;6553;48.412;9.514;2023-04-25T01:24:36;71597.06;;;19.24
64600;BMP280;6553;48.412;9.514;2023-04-25T01:27:03;71596.53;;;19.24
64600;BMP280;6553;48.412;9.514;2023-04-25T01:29:29;71597.16;;;19.22
64600;BMP280;6553;48.412;9.514;2023-04-25T01:31:56;71599.28;;;19.24
64600;BMP280;6553;48.412;9.514;2023-04-25T01:34:24;71596.63;;;19.21
64600;BMP280;6553;48.412;9.514;2023-04-25T01:36:51;71594.41;;;19.22
64600;BMP280;6553;48.412;9.514;2023-04-25T01:39:18;71598.22;;;19.23
64600;BMP280;6553;48.412;9.514;2023-04-25T01:41:48;71597.16;;;19.22
64600;BMP280;6553;48.412;9.514;2023-04-25T01:44:14;71597.16;;;19.22
64600;BMP280;6553;48.412;9.514;2023-04-25T01:46:40;71594.50;;;19.19
64600;BMP280;6553;48.412;9.514;2023-04-25T01:49:06;71599.94;;;19.22
64600;BMP280;6553;48.412;9.514;2023-04-25T01:51:32;71592.28;;;19.20
64600;BMP280;6553;48.412;9.514;2023-04-25T01:53:59;71592.69;;;19.23
64600;BMP280;6553;48.412;9.514;2023-04-25T01:56:25;71590.56;;;19.21
64600;BMP280;6553;48.412;9.514;2023-04-25T01:58:51;71591.63;;;19.22
64600;BMP280;6553;48.412;9.514;2023-04-25T02:01:32;71597.06;;;19.24
64600;BMP280;6553;48.412;9.514;2023-04-25T02:04:12;71604.81;;;19.24
64600;BMP280;6553;48.412;9.514;2023-04-25T02:06:39;71597.56;;;19.25
64600;BMP280;6553;48.412;9.514;2023-04-25T02:09:06;71598.75;;;19.23
64600;BMP280;6553;48.412;9.514;2023-04-25T02:11:32;71601.41;;;19.26
64600;BMP280;6553;48.412;9.514;2023-04-25T02:14:33;71598.22;;;19.23
64600;BMP280;6553;48.412;9.514;2023-04-25T02:17:06;71597.16;;;19.22
64600;BMP280;6553;48.412;9.514;2023-04-25T02:19:32;71597.16;;;19.22
64600;BMP280;6553;48.412;9.514;2023-04-25T02:21:58;71592.28;;;19.20
64600;BMP280;6553;48.412;9.514;2023-04-25T02:24:24;71597.69;;;19.22
64600;BMP280;6553;48.412;9.514;2023-04-25T02:26:50;71598.22;;;19.23
64600;BMP280;6553;48.412;9.514;2023-04-25T02:29:16;71593.75;;;19.24
64600;BMP280;6553;48.412;9.514;2023-04-25T02:31:42;71594.41;;;19.22
64600;BMP280;6553;48.412;9.514;2023-04-25T02:34:08;71589.50;;;19.20
64600;BMP280;6553;48.412;9.514;2023-04-25T02:36:36;71591.63;;;19.22
64600;BMP280;6553;48.412;9.514;2023-04-25T02:39:02;71597.16;;;19.22
64600;BMP280;6553;48.412;9.514;2023-04-25T02:41:28;71600.88;;;19.25
64600;BMP280;6553;48.412;9.514;2023-04-25T02:43:55;71597.56;;;19.25
64600;BMP280;6553;48.412;9.514;2023-04-25T02:46:20;71598.75;;;19.23
64600;BMP280;6553;48.412;9.514;2023-04-25T02:48:46;71598.22;;;19.23
64600;BMP280;6553;48.412;9.514;2023-04-25T02:51:12;71596.53;;;19.24
64600;BMP280;6553;48.412;9.514;2023-04-25T02:53:38;71595.03;;;19.20
64600;BMP280;6553;48.412;9.514;2023-04-25T02:56:04;71597.56;;;19.25
64600;BMP280;6553;48.412;9.514;2023-04-25T02:58:30;71590.56;;;19.21
64600;BMP280;6553;48.412;9.514;2023-04-25T03:00:56;71598.88;;;19.21
64600;BMP280;6553;48.412;9.514;2023-04-25T03:03:21;71592.16;;;19.22
64600;BMP280;6553;48.412;9.514;2023-04-25T03:05:51;71593.75;;;19.24
64600;BMP280;6553;48.412;9.514;2023-04-25T03:08:22;71593.34;;;19.21
64600;BMP280;6553;48.412;9.514;2023-04-25T03:10:48;71594.94;;;19.22
64600;BMP280;6553;48.412;9.514;2023-04-25T03:13:16;71593.84;;;19.21
64600;BMP280;6553;48.412;9.514;2023-04-25T03:15:43;71592.16;;;19.22
64600;BMP280;6553;48.412;9.514;2023-04-25T03:18:09;71598.22;;;19.23
64600;BMP280;6553;48.412;9.514;2023-04-25T03:20:35;71592.16;;;19.22
64600;BMP280;6553;48.412;9.514;2023-04-25T03:23:00;71594.50;;;19.19
64600;BMP280;6553;48.412;9.514;2023-04-25T03:25:28;71593.34;;;19.21
64600;BMP280;6553;48.412;9.514;2023-04-25T03:27:53;71596.09;;;19.21
64600;BMP280;6553;48.412;9.514;2023-04-25T03:30:19;71596.63;;;19.21
64600;BMP280;6553;48.412;9.514;2023-04-25T03:32:45;71590.56;;;19.21
64600;BMP280;6553;48.412;9.514;2023-04-25T03:35:15;71594.94;;;19.22
64600;BMP280;6553;48.412;9.514;2023-04-25T03:37:41;71590.16;;;19.18
64600;BMP280;6553;48.412;9.514;2023-04-25T03:40:11;71598.22;;;19.23
64600;BMP280;6553;48.412;9.514;2023-04-25T03:42:57;71591.09;;;19.21
64600;BMP280;6553;48.412;9.514;2023-04-25T03:45:23;71592.91;;;19.18
64600;BMP280;6553;48.412;9.514;2023-04-25T03:47:49;71595.03;;;19.20
64600;BMP280;6553;48.412;9.514;2023-04-25T03:50:15;71594.50;;;19.19
64600;BMP280;6553;48.412;9.514;2023-04-25T03:52:41;71595.03;;;19.20
64600;BMP280;6553;48.412;9.514;2023-04-25T03:55:08;71598.88;;;19.21
64600;BMP280;6553;48.412;9.514;2023-04-25T03:57:34;71596.09;;;19.21
64600;BMP280;6553;48.412;9.514;2023-04-25T04:00:00;71595.56;;;19.20
64600;BMP280;6553;48.412;9.514;2023-04-25T04:02:28;71595.56;;;19.20
64600;BMP280;6553;48.412;9.514;2023-04-25T04:04:54;71596.09;;;19.21
64600;BMP280;6553;48.412;9.514;2023-04-25T04:07:21;71589.50;;;19.20
64600;BMP280;6553;48.412;9.514;2023-04-25T04:09:50;71596.09;;;19.21
64600;BMP280;6553;48.412;9.514;2023-04-25T04:12:25;71599.94;;;19.22
64600;BMP280;6553;48.412;9.514;2023-04-25T04:14:51;71587.38;;;19.18
64600;BMP280;6553;48.412;9.514;2023-04-25T04:17:17;71603.75;;;19.23
64600;BMP280;6553;48.412;9.514;2023-04-25T04:19:43;71596.09;;;19.21
64600;BMP280;6553;48.412;9.514;2023-04-25T04:22:17;71600.56;;;19.20
64600;BMP280;6553;48.412;9.514;2023-04-25T04:24:42;71592.28;;;19.20
64600;BMP280;6553;48.412;9.514;2023-04-25T04:27:14;71595.56;;;19.20
64600;BMP280;6553;48.412;9.514;2023-04-25T04:29:46;71588.03;;;19.16
64600;BMP280;6553;48.412;9.514;2023-04-25T04:32:23;71595.69;;;19.18
64600;BMP280;6553;48.412;9.514;2023-04-25T04:34:49;71586.88;;;19.17
64600;BMP280;6553;48.412;9.514;2023-04-25T04:37:17;71590.16;;;19.18
64600;BMP280;6553;48.412;9.514;2023-04-25T04:39:45;71591.72;;;19.19
64600;BMP280;6553;48.412;9.514;2023-04-25T04:42:23;71589.63;;;19.17
64600;BMP280;6553;48.412;9.514;2023-04-25T04:45:17;71588.97;;;19.19
64600;BMP280;6553;48.412;9.514;2023-04-25T04:48:06;71590.03;;;19.20
64600;BMP280;6553;48.412;9.514;2023-04-25T04:50:32;71591.72;;;19.19
64600;BMP280;6553;48.412;9.514;2023-04-25T04:53:11;71596.09;;;19.21
64600;BMP280;6553;48.412;9.514;2023-04-25T04:55:37;71594.50;;;19.19
64600;BMP280;6553;48.412;9.514;2023-04-25T04:58:15;71591.31;;;19.16
64600;BMP280;6553;48.412;9.514;2023-04-25T05:00:53;71595.03;;;19.20
64600;BMP280;6553;48.412;9.514;2023-04-25T05:03:37;71597.16;;;19.22
64600;BMP280;6553;48.412;9.514;2023-04-25T05:06:25;71615.34;;;19.23
64600;BMP280;6553;48.412;9.514;2023-04-25T05:09:11;71594.41;;;19.22
64600;BMP280;6553;48.412;9.514;2023-04-25T05:11:53;71597.69;;;19.22
64600;BMP280;6553;48.412;9.514;2023-04-25T05:14:34;71596.09;;;19.21
64600;BMP280;6553;48.412;9.514;2023-04-25T05:17:23;71598.22;;;19.23
64600;BMP280;6553;48.412;9.514;2023-04-25T05:20:03;71591.63;;;19.22
64600;BMP280;6553;48.412;9.514;2023-04-25T05:22:49;71596.53;;;19.24
64600;BMP280;6553;48.412;9.514;2023-04-25T05:25:23;71596.09;;;19.21
64600;BMP280;6553;48.412;9.514;2023-04-25T05:28:18;71601.50;;;19.23
64600;BMP280;6553;48.412;9.514;2023-04-25T05:30:52;71591.19;;;19.19
64600;BMP280;6553;48.412;9.514;2023-04-25T05:33:27;71598.22;;;19.23
64600;BMP280;6553;48.412;9.514;2023-04-25T05:35:53;71597.16;;;19.22
64600;BMP280;6553;48.412;9.514;2023-04-25T05:38:20;71593.22;;;19.23
64600;BMP280;6553;48.412;9.514;2023-04-25T05:41:08;71604.19;;;19.26
64600;BMP280;6553;48.412;9.514;2023-04-25T05:44:00;71587.38;;;19.18
64600;BMP280;6553;48.412;9.514;2023-04-25T05:46:46;71595.88;;;19.26
64600;BMP280;6553;48.412;9.514;2023-04-25T05:49:22;71601.41;;;19.26
64600;BMP280;6553;48.412;9.514;2023-04-25T05:51:57;71599.72;;;19.27
64600;BMP280;6553;48.412;9.514;2023-04-25T05:54:41;71602.88;;;19.30
64600;BMP280;6553;48.412;9.514;2023-04-25T05:57:07;71599.19;;;19.26
64600;BMP280;6553;48.412;9.514;2023-04-25T05:59:33;71606.72;;;19.31
64600;BMP280;6553;48.412;9.514;2023-04-25T06:01:59;71605.78;;;19.27
64600;BMP280;6553;48.412;9.514;2023-04-25T06:04:27;71608.22;;;19.35
64600;BMP280;6553;48.412;9.514;2023-04-25T06:06:53;71606.06;;;19.33
64600;BMP280;6553;48.412;9.514;2023-04-25T06:09:21;71612.81;;;19.31
64600;BMP280;6553;48.412;9.514;2023-04-25T06:11:47;71606.06;;;19.33
64600;BMP280;6553;48.412;9.514;2023-04-25T06:14:13;71605.44;;;19.35
64600;BMP280;6553;48.412;9.514;2023-04-25T06:16:44;71610.31;;;19.37
64600;BMP280;6553;48.412;9.514;2023-04-25T06:19:10;71608.63;;;19.38
64600;BMP280;6553;48.412;9.514;2023-04-25T06:21:36;71613.09;;;19.37
64600;BMP280;6553;48.412;9.514;2023-04-25T06:24:02;71604.38;;;19.34
64600;BMP280;6553;48.412;9.514;2023-04-25T06:26:28;71612.44;;;19.39
64600;BMP280;6553;48.412;9.514;2023-04-25T06:28:54;71599.06;;;19.29
64600;BMP280;6553;48.412;9.514;2023-04-25T06:31:20;71611.59;;;19.33
64600;BMP280;6553;48.412;9.514;2023-04-25T06:33:47;71612.03;;;19.36
64600;BMP280;6553;48.412;9.514;2023-04-25T06:36:14;71610.31;;;19.37
64600;BMP280;6553;48.412;9.514;2023-04-25T06:38:41;71611.91;;;19.38
64600;BMP280;6553;48.412;9.514;2023-04-25T06:41:07;71600.13;;;19.30
64600;BMP280;6553;48.412;9.514;2023-04-25T06:43:35;71614.16;;;19.38
64600;BMP280;6553;48.412;9.514;2023-04-25T06:46:10;71605.44;;;19.35
64600;BMP280;6553;48.412;9.514;2023-04-25T06:48:42;71613.63;;;19.37
64600;BMP280;6553;48.412;9.514;2023-04-25T06:51:07;71608.22;;;19.35
64600;BMP280;6553;48.412;9.514;2023-04-25T06:53:35;71608.09;;;19.37
64600;BMP280;6553;48.412;9.514;2023-04-25T06:56:03;71613.63;;;19.37
64600;BMP280;6553;48.412;9.514;2023-04-25T06:58:40;71612.44;;;19.39
64600;BMP280;6553;48.412;9.514;2023-04-25T07:01:13;71605.97;;;19.35
64600;BMP280;6553;48.412;9.514;2023-04-25T07:03:39;71602.88;;;19.30
64600;BMP280;6553;48.412;9.514;2023-04-25T07:06:12;71614.16;;;19.38
64600;BMP280;6553;48.412;9.514;2023-04-25T07:08:38;71605.97;;;19.35
64600;BMP280;6553;48.412;9.514;2023-04-25T07:11:03;71612.53;;;19.36
64600;BMP280;6553;48.412;9.514;2023-04-25T07:13:29;71612.44;;;19.39
64600;BMP280;6553;48.412;9.514;2023-04-25T07:15:55;71614.16;;;19.38
64600;BMP280;6553;48.412;9.514;2023-04-25T07:18:22;71606.19;;;19.30
64600;BMP280;6553;48.412;9.514;2023-04-25T07:20:49;71615.22;;;19.39
64600;BMP280;6553;48.412;9.514;2023-04-25T07:23:15;71611.28;;;19.40
64600;BMP280;6553;48.412;9.514;2023-04-25T07:25:41;71610.84;;;19.37
64600;BMP280;6553;48.412;9.514;2023-04-25T07:28:07;71599.06;;;19.29
64600;BMP280;6553;48.412;9.514;2023-04-25T07:30:33;71610.22;;;19.39
64600;BMP280;6553;48.412;9.514;2023-04-25T07:33:03;71622.75;;;19.43
64600;BMP280;6553;48.412;9.514;2023-04-25T07:35:28;71619.47;;;19.43
64600;BMP280;6553;48.412;9.514;2023-04-25T07:37:54;71602.75;;;19.32
64600;BMP280;6553;48.412;9.514;2023-04-25T07:40:21;71616.69;;;19.43
64600;BMP280;6553;48.412;9.514;2023-04-25T07:42:51;71618.91;;;19.42
64600;BMP280;6553;48.412;9.514;2023-04-25T07:45:23;71620.53;;;19.44
64600;BMP280;6553;48.412;9.514;2023-04-25T07:47:50;71620.53;;;19.44
64600;BMP280;6553;48.412;9.514;2023-04-25T07:50:16;71615.00;;;19.44
64600;BMP280;6553;48.412;9.514;2023-04-25T07:52:42;71612.34;;;19.41
64600;BMP280;6553;48.412;9.514;2023-04-25T07:55:17;71619.34;;;19.45
64600;BMP280;6553;48.412;9.514;2023-04-25T07:57:56;71610.22;;;19.39
64600;BMP280;6553;48.412;9.514;2023-04-25T08:00:22;71612.66;;;19.34
64600;BMP280;6553;48.412;9.514;2023-04-25T08:02:56;71613.38;;;19.42
64600;BMP280;6553;48.412;9.514;2023-04-25T08:05:22;71613.38;;;19.42
64600;BMP280;6553;48.412;9.514;2023-04-25T08:07:53;71612.34;;;19.41
64600;BMP280;6553;48.412;9.514;2023-04-25T08:10:19;71619.47;;;19.43
64600;BMP280;6553;48.412;9.514;2023-04-25T08:12:47;71621.06;;;19.44
64600;BMP280;6553;48.412;9.514;2023-04-25T08:15:13;71619.06;;;19.40
64600;BMP280;6553;48.412;9.514;2023-04-25T08:17:39;71615.63;;;19.42
64600;BMP280;6553;48.412;9.514;2023-04-25T08:20:06;71615.53;;;19.44
64600;BMP280;6553;48.412;9.514;2023-04-25T08:22:33;71615.09;;;19.41
64600;BMP280;6553;48.412;9.514;2023-04-25T08:25:22;71610.75;;;19.40
64600;BMP280;6553;48.412;9.514;2023-04-25T08:27:48;71616.81;;;19.40
64600;BMP280;6553;48.412;9.514;2023-04-25T08:30:15;71614.47;;;19.43
64600;BMP280;6553;48.412;9.514;2023-04-25T08:32:42;71616.06;;;19.45
64600;BMP280;6553;48.412;9.514;2023-04-25T08:35:28;71624.25;;;19.47
64600;BMP280;6553;48.412;9.514;2023-04-25T08:37:55;71615.00;;;19.44
64600;BMP280;6553;48.412;9.514;2023-04-25T08:40:22;71617.34;;;19.41
64600;BMP280;6553;48.412;9.514;2023-04-25T08:42:57;71614.47;;;19.43
64600;BMP280;6553;48.412;9.514;2023-04-25T08:45:26;71615.53;;;19.44
64600;BMP280;6553;48.412;9.514;2023-04-25T08:47:54;71608.84;;;19.33
64600;BMP280;6553;48.412;9.514;2023-04-25T08:50:23;71618.31;;;19.44
64600;BMP280;6553;48.412;9.514;2023-04-25T08:52:53;71626.47;;;19.47
64600;BMP280;6553;48.412;9.514;2023-04-25T08:55:21;71618.16;;;19.47
64600;BMP280;6553;48.412;9.514;2023-04-25T08:57:53;71617.88;;;19.41
64600;BMP280;6553;48.412;9.514;2023-04-25T09:00:19;71612.34;;;19.41
64600;BMP280;6553;48.412;9.514;2023-04-25T09:02:47;71605.44;;;19.35
64600;BMP280;6553;48.412;9.514;2023-04-25T09:05:14;71609.13;;;19.38
64600;BMP280;6553;48.412;9.514;2023-04-25T09:07:40;71618.38;;;19.42
64600;BMP280;6553;48.412;9.514;2023-04-25T09:10:06;71615.63;;;19.42
64600;BMP280;6553;48.412;9.514;2023-04-25T09:12:36;71617.22;;;19.43
64600;BMP280;6553;48.412;9.514;2023-04-25T09:15:09;71616.16;;;19.42
64600;BMP280;6553;48.412;9.514;2023-04-25T09:17:57;71621.06;;;19.44
64600;BMP280;6553;48.412;9.514;2023-04-25T09:20:27;71615.09;;;19.41
64600;BMP280;6553;48.412;9.514;2023-04-25T09:23:05;71623.84;;;19.44
64600;BMP280;6553;48.412;9.514;2023-04-25T09:25:38;71616.56;;;19.45
64600;BMP280;6553;48.412;9.514;2023-04-25T09:28:06;71613.22;;;19.34
64600;BMP280;6553;48.412;9.514;2023-04-25T09:30:35;71617.09;;;19.46
64600;BMP280;6553;48.412;9.514;2023-04-25T09:33:11;71621.59;;;19.45
64600;BMP280;6553;48.412;9.514;2023-04-25T09:35:45;71618.91;;;19.42
64600;BMP280;6553;48.412;9.514;2023-04-25T09:38:22;71613.38;;;19.42
64600;BMP280;6553;48.412;9.514;2023-04-25T09:41:23;71615.00;;;19.44
64600;BMP280;6553;48.412;9.514;2023-04-25T09:43:50;71613.38;;;19.42
64600;BMP280;6553;48.412;9.514;2023-04-25T09:46:16;71615.44;;;19.34
64600;BMP280;6553;48.412;9.514;2023-04-25T09:48:51;71620.53;;;19.44
64600;BMP280;6553;48.412;9.514;2023-04-25T09:51:26;71619.88;;;19.46
64600;BMP280;6553;48.412;9.514;2023-04-25T09:53:53;71618.84;;;19.45
64600;BMP280;6553;48.412;9.514;2023-04-25T09:56:36;71613.91;;;19.43
64600;BMP280;6553;48.412;9.514;2023-04-25T09:59:05;71614.47;;;19.43
64600;BMP280;6553;48.412;9.514;2023-04-25T10:01:34;71616.69;;;19.43
64600;BMP280;6553;48.412;9.514;2023-04-25T10:04:30;71611.78;;;19.41
64600;BMP280;6553;48.412;9.514;2023-04-25T10:07:03;71621.06;;;19.44
64600;BMP280;6553;48.412;9.514;2023-04-25T10:09:32;71621.47;;;19.47
64600;BMP280;6553;48.412;9.514;2023-04-25T10:12:02;71619.88;;;19.46
64600;BMP280;6553;48.412;9.514;2023-04-25T10:14:31;71623.72;;;19.47
64600;BMP280;6553;48.412;9.514;2023-04-25T10:16:58;71612.84;;;19.42
64600;BMP280;6553;48.412;9.514;2023-04-25T10:19:26;71619.88;;;19.46
64600;BMP280;6553;48.412;9.514;2023-04-25T10:22:34;71622.63;;;19.46
64600;BMP280;6553;48.412;9.514;2023-04-25T10:25:01;71619.47;;;19.43
64600;BMP280;6553;48.412;9.514;2023-04-25T10:27:30;71620.53;;;19.44
64600;BMP280;6553;48.412;9.514;2023-04-25T10:30:08;71621.06;;;19.44
64600;BMP280;6553;48.412;9.514;2023-04-25T10:32:37;71620.00;;;19.43
64600;BMP280;6553;48.412;9.514;2023-04-25T10:35:18;71623.28;;;19.44
64600;BMP280;6553;48.412;9.514;2023-04-25T10:38:24;71619.34;;;19.45
64600;BMP280;6553;48.412;9.514;2023-04-25T10:41:08;71620.53;;;19.44
64600;BMP280;6553;48.412;9.514;2023-04-25T10:49:02;71617.34;;;19.41
64600;BMP280;6553;48.412;9.514;2023-04-25T10:51:31;71623.06;;;19.49
64600;BMP280;6553;48.412;9.514;2023-04-25T10:54:06;71620.53;;;19.44
64600;BMP280;6553;48.412;9.514;2023-04-25T10:59:13;71624.13;;;19.50
64600;BMP280;6553;48.412;9.514;2023-04-25T11:01:45;71622.41;;;19.51
64600;BMP280;6553;48.412;9.514;2023-04-25T11:04:32;71619.25;;;19.48
64600;BMP280;6553;48.412;9.514;2023-04-25T11:07:29;71626.88;;;19.50
64600;BMP280;6553;48.412;9.514;2023-04-25T11:10:03;71615.53;;;19.44
64600;BMP280;6553;48.412;9.514;2023-04-25T11:12:31;71620.81;;;19.49
64600;BMP280;6553;48.412;9.514;2023-04-25T11:15:05;71624.00;;;19.52
64600;BMP280;6553;48.412;9.514;2023-04-25T11:17:32;71625.84;;;19.49
64600;BMP280;6553;48.412;9.514;2023-04-25T11:19:59;71627.97;;;19.51
64600;BMP280;6553;48.412;9.514;2023-04-25T11:22:27;71629.03;;;19.52
64600;BMP280;6553;48.412;9.514;2023-04-25T11:24:53;71620.81;;;19.49
64600;BMP280;6553;48.412;9.514;2023-04-25T11:27:20;71626.88;;;19.50
64600;BMP280;6553;48.412;9.514;2023-04-25T11:29:46;71625.84;;;19.49
64600;BMP280;6553;48.412;9.514;2023-04-25T11:32:17;71623.56;;;19.49
64600;BMP280;6553;48.412;9.514;2023-04-25T11:34:44;71622.00;;;19.48
64600;BMP280;6553;48.412;9.514;2023-04-25T11:37:11;71620.28;;;19.49
64600;BMP280;6553;48.412;9.514;2023-04-25T11:39:44;71617.09;;;19.46
64600;BMP280;6553;48.412;9.514;2023-04-25T11:42:11;71618.72;;;19.47
64600;BMP280;6553;48.412;9.514;2023-04-25T11:44:39;71619.25;;;19.48
64600;BMP280;6553;48.412;9.514;2023-04-25T11:47:05;71625.31;;;19.48
64600;BMP280;6553;48.412;9.514;2023-04-25T11:49:31;71618.16;;;19.47
64600;BMP280;6553;48.412;9.514;2023-04-25T11:51:57;71620.00;;;19.43
64600;BMP280;6553;48.412;9.514;2023-04-25T11:54:23;71623.06;;;19.49
64600;BMP280;6553;48.412;9.514;2023-04-25T11:56:49;71611.78;;;19.41
64600;BMP280;6553;48.412;9.514;2023-04-25T11:59:15;71626.88;;;19.50
64600;BMP280;6553;48.412;9.514;2023-04-25T12:01:49;71624.53;;;19.53
64600;BMP280;6553;48.412;9.514;2023-04-25T12:04:23;71629.53;;;19.52
64600;BMP280;6553;48.412;9.514;2023-04-25T12:06:55;71621.88;;;19.50
64600;BMP280;6553;48.412;9.514;2023-04-25T12:09:29;71625.09;;;19.53
64600;BMP280;6553;48.412;9.514;2023-04-25T12:11:58;71630.09;;;19.53
64600;BMP280;6553;48.412;9.514;2023-04-25T12:14:30;71633.91;;;19.54
64600;BMP280;6553;48.412;9.514;2023-04-25T12:17:00;71631.13;;;19.54
64600;BMP280;6553;48.412;9.514;2023-04-25T12:19:33;71636.16;;;19.53
64600;BMP280;6553;48.412;9.514;2023-04-25T12:22:01;71629.44;;;19.55
64600;BMP280;6553;48.412;9.514;2023-04-25T12:24:28;71625.59;;;19.54
64600;BMP280;6553;48.412;9.514;2023-04-25T12:27:01;71634.19;;;19.59
64600;BMP280;6553;48.412;9.514;2023-04-25T12:29:30;71637.50;;;19.60
64600;BMP280;6553;48.412;9.514;2023-04-25T12:31:58;71630.38;;;19.58
64600;BMP280;6553;48.412;9.514;2023-04-25T12:34:24;71626.88;;;19.50
64600;BMP280;6553;48.412;9.514;2023-04-25T12:36:51;71637.91;;;19.63
64600;BMP280;6553;48.412;9.514;2023-04-25T12:39:20;71635.69;;;19.63
64600;BMP280;6553;48.412;9.514;2023-04-25T12:41:49;71645.19;;;19.62
64600;BMP280;6553;48.412;9.514;2023-04-25T12:44:15;71631.97;;;19.60
64600;BMP280;6553;48.412;9.514;2023-04-25T12:46:41;71623.50;;;19.52
64600;BMP280;6553;48.412;9.514;2023-04-25T12:49:08;71636.97;;;19.59
64600;BMP280;6553;48.412;9.514;2023-04-25T12:51:35;71630.91;;;19.59
64600;BMP280;6553;48.412;9.514;2023-04-25T12:54:02;71635.41;;;19.58
64600;BMP280;6553;48.412;9.514;2023-04-25T12:56:29;71639.22;;;19.59
64600;BMP280;6553;48.412;9.514;2023-04-25T12:58:55;71630.91;;;19.59
64600;BMP280;6553;48.412;9.514;2023-04-25T13:01:21;71638.56;;;19.61
64600;BMP280;6553;48.412;9.514;2023-04-25T13:03:48;71636.34;;;19.62
64600;BMP280;6553;48.412;9.514;2023-04-25T13:06:15;71639.13;;;19.62
64600;BMP280;6553;48.412;9.514;2023-04-25T13:08:41;71631.97;;;19.60
64600;BMP280;6553;48.412;9.514;2023-04-25T13:11:08;71634.13;;;19.62
64600;BMP280;6553;48.412;9.514;2023-04-25T13:13:34;71636.34;;;19.62
64600;BMP280;6553;48.412;9.514;2023-04-25T13:16:01;71637.91;;;19.63
64600;BMP280;6553;48.412;9.514;2023-04-25T13:18:29;71634.63;;;19.63
64600;BMP280;6553;48.412;9.514;2023-04-25T13:20:55;71634.63;;;19.63
64600;BMP280;6553;48.412;9.514;2023-04-25T13:23:22;71646.66;;;19.66
64600;BMP280;6553;48.412;9.514;2023-04-25T13:25:48;71638.38;;;19.66
64600;BMP280;6553;48.412;9.514;2023-04-25T13:28:14;71642.81;;;19.65
64600;BMP280;6553;48.412;9.514;2023-04-25T13:30:40;71644.84;;;19.70
64600;BMP280;6553;48.412;9.514;2023-04-25T13:33:06;71648.78;;;19.68
64600;BMP280;6553;48.412;9.514;2023-04-25T13:35:34;71647.63;;;19.70
64600;BMP280;6553;48.412;9.514;2023-04-25T13:38:01;71644.41;;;19.67
64600;BMP280;6553;48.412;9.514;2023-04-25T13:40:27;71641.00;;;19.69
64600;BMP280;6553;48.412;9.514;2023-04-25T13:42:53;71644.31;;;19.69
64600;BMP280;6553;48.412;9.514;2023-04-25T13:45:20;71641.00;;;19.69
64600;BMP280;6553;48.412;9.514;2023-04-25T13:47:46;71643.78;;;19.69
64600;BMP280;6553;48.412;9.514;2023-04-25T13:50:12;71648.78;;;19.68
64600;BMP280;6553;48.412;9.514;2023-04-25T13:52:40;71641.53;;;19.69
64600;BMP280;6553;48.412;9.514;2023-04-25T13:55:07;71654.09;;;19.73
64600;BMP280;6553;48.412;9.514;2023-04-25T13:57:34;71651.19;;;19.76
64600;BMP280;6553;48.412;9.514;2023-04-25T14:00:01;71648.44;;;19.76
64600;BMP280;6553;48.412;9.514;2023-04-25T14:02:35;71646.00;;;19.68
64600;BMP280;6553;48.412;9.514;2023-04-25T14:05:02;71653.97;;;19.76
64600;BMP280;6553;48.412;9.514;2023-04-25T14:07:28;71657.28;;;19.76
64600;BMP280;6553;48.412;9.514;2023-04-25T14:09:54;71652.38;;;19.74
64600;BMP280;6553;48.412;9.514;2023-04-25T14:12:20;71643.91;;;19.66
64600;BMP280;6553;48.412;9.514;2023-04-25T14:14:46;71643.13;;;19.71
64600;BMP280;6553;48.412;9.514;2023-04-25T14:17:11;71646.94;;;19.72
64600;BMP280;6553;48.412;9.514;2023-04-25T14:19:38;71643.25;;;19.68
64600;BMP280;6553;48.412;9.514;2023-04-25T14:22:09;71645.38;;;19.70
64600;BMP280;6553;48.412;9.514;2023-04-25T14:24:34;71651.94;;;19.71
64600;BMP280;6553;48.412;9.514;2023-04-25T14:27:00;71638.38;;;19.66
64600;BMP280;6553;48.412;9.514;2023-04-25T14:29:26;71646.94;;;19.72
64600;BMP280;6553;48.412;9.514;2023-04-25T14:31:52;71646.00;;;19.68
64600;BMP280;6553;48.412;9.514;2023-04-25T14:34:19;71639.75;;;19.59
64600;BMP280;6553;48.412;9.514;2023-04-25T14:36:45;71647.06;;;19.69
64600;BMP280;6553;48.412;9.514;2023-04-25T14:39:12;71643.78;;;19.69
64600;BMP280;6553;48.412;9.514;2023-04-25T14:41:38;71648.66;;;19.71
64600;BMP280;6553;48.412;9.514;2023-04-25T14:44:03;71648.66;;;19.71